createdAt,value
2023-03-16T00:01:06.989Z,5.68
2023-03-16T00:06:08.491Z,5.97
2023-03-16T00:11:10.047Z,6.40
2023-03-16T00:16:12.009Z,5.55
2023-03-16T00:21:15.132Z,5.60
2023-03-16T00:26:17.195Z,5.72
2023-03-16T00:31:19.051Z,6.15
2023-03-16T00:36:20.671Z,5.00
2023-03-16T00:41:22.752Z,4.63
2023-03-16T00:46:24.405Z,4.97
2023-03-16T00:51:25.963Z,4.18
2023-03-16T00:56:27.523Z,4.63
2023-03-16T01:01:29.158Z,4.85
2023-03-16T01:06:30.733Z,4.90
2023-03-16T01:11:32.484Z,4.68
2023-03-16T01:16:34.577Z,4.85
2023-03-16T01:21:36.170Z,4.20
2023-03-16T01:26:37.843Z,4.43
2023-03-16T01:31:39.428Z,4.00
2023-03-16T01:36:43.281Z,4.38
2023-03-16T01:41:46.280Z,3.92
2023-03-16T01:46:48.779Z,3.35
2023-03-16T01:52:08.838Z,3.38
2023-03-16T01:57:18.598Z,2.92
2023-03-16T02:02:23.977Z,4.00
2023-03-16T02:07:29.091Z,3.88
2023-03-16T02:12:31.033Z,3.22
2023-03-16T02:17:36.529Z,3.65
2023-03-16T02:22:47.633Z,3.40
2023-03-16T02:28:10.689Z,3.40
2023-03-16T02:33:18.802Z,4.15
2023-03-16T02:38:20.683Z,3.30
2023-03-16T02:43:34.844Z,3.03
2023-03-16T02:48:56.665Z,2.95
2023-03-16T02:53:58.819Z,3.03
2023-03-16T02:59:02.691Z,2.88
2023-03-16T03:04:05.478Z,2.88
2023-03-16T03:09:07.744Z,2.80
2023-03-16T03:14:10.321Z,2.80
2023-03-16T03:19:14.368Z,3.47
2023-03-16T03:24:16.431Z,3.05
2023-03-16T03:29:21.119Z,3.35
2023-03-16T03:34:22.708Z,3.05
2023-03-16T03:39:25.077Z,3.78
2023-03-16T03:44:28.979Z,2.97
2023-03-16T03:49:31.367Z,2.75
2023-03-16T03:54:33.335Z,2.88
2023-03-16T03:59:40.639Z,3.20
2023-03-16T04:04:54.380Z,3.72
2023-03-16T04:09:56.279Z,2.95
2023-03-16T04:15:04.428Z,2.92
2023-03-16T04:20:11.965Z,3.53
2023-03-16T04:25:16.446Z,2.70
2023-03-16T04:30:19.464Z,2.10
2023-03-16T04:35:26.152Z,3.10
2023-03-16T04:40:31.662Z,3.20
2023-03-16T04:45:41.871Z,3.05
2023-03-16T04:50:44.345Z,4.25
2023-03-16T04:55:47.484Z,3.33
2023-03-16T05:00:52.258Z,3.70
2023-03-16T05:05:59.900Z,3.83
2023-03-16T05:11:07.982Z,3.40
2023-03-16T05:16:16.061Z,3.45
2023-03-16T05:21:18.096Z,3.75
2023-03-16T05:26:28.864Z,3.90
2023-03-16T05:31:31.347Z,4.30
2023-03-16T05:36:34.121Z,4.45
2023-03-16T05:41:42.264Z,3.78
2023-03-16T05:46:51.787Z,3.42
2023-03-16T05:51:54.113Z,4.22
2023-03-16T05:56:56.822Z,4.75
2023-03-16T06:01:59.008Z,4.22
2023-03-16T06:07:01.766Z,4.47
2023-03-16T06:12:04.956Z,4.40
2023-03-16T06:17:08.314Z,4.35
2023-03-16T06:22:11.161Z,3.85
2023-03-16T06:27:13.671Z,3.30
2023-03-16T06:32:31.270Z,3.50
2023-03-16T06:37:33.018Z,3.10
2023-03-16T06:47:45.353Z,4.15
2023-03-16T06:52:47.548Z,3.70
2023-03-16T06:57:49.282Z,3.65
2023-03-16T07:02:53.312Z,5.13
2023-03-16T07:07:56.196Z,3.90
2023-03-16T07:12:57.829Z,3.40
2023-03-16T07:17:59.512Z,3.63
2023-03-16T07:23:01.516Z,3.42
2023-03-16T07:28:04.386Z,3.30
2023-03-16T07:33:12.778Z,3.67
2023-03-16T07:38:15.455Z,3.05
2023-03-16T07:43:18.489Z,3.78
2023-03-16T07:48:24.999Z,3.47
2023-03-16T07:53:34.344Z,3.55
2023-03-16T07:58:50.275Z,3.77
2023-03-16T08:03:52.808Z,3.33
2023-03-16T08:08:54.744Z,3.28
2023-03-16T08:14:04.110Z,3.83
2023-03-16T08:19:24.625Z,2.83
2023-03-16T08:24:28.632Z,3.13
2023-03-16T08:29:32.248Z,3.35
2023-03-16T08:34:33.873Z,2.83
2023-03-16T08:39:35.746Z,3.50
2023-03-16T08:44:41.657Z,4.23
2023-03-16T08:49:43.348Z,3.15
2023-03-16T08:55:01.846Z,3.30
2023-03-16T09:00:04.934Z,3.63
2023-03-16T09:05:11.725Z,3.60
2023-03-16T09:15:15.284Z,3.53
2023-03-16T09:20:33.516Z,4.50
2023-03-16T09:25:35.389Z,4.25
2023-03-16T09:30:37.244Z,3.90
2023-03-16T09:35:39.230Z,3.50
2023-03-16T09:40:41.221Z,3.90
2023-03-16T09:45:48.770Z,3.20
2023-03-16T09:50:51.384Z,3.80
2023-03-16T09:56:05.851Z,3.63
2023-03-16T10:01:27.043Z,3.83
2023-03-16T10:06:28.948Z,4.32
2023-03-16T10:11:57.180Z,3.22
2023-03-16T10:17:16.845Z,3.00
2023-03-16T10:22:23.388Z,3.85
2023-03-16T10:27:31.174Z,3.17
2023-03-16T10:32:34.019Z,3.45
2023-03-16T10:37:36.411Z,3.50
2023-03-16T10:42:38.896Z,4.00
2023-03-16T10:47:40.857Z,3.83
2023-03-16T10:52:46.288Z,3.38
2023-03-16T10:57:56.067Z,3.47
2023-03-16T11:02:59.783Z,2.35
2023-03-16T11:08:13.438Z,3.28
2023-03-16T11:13:20.832Z,3.60
2023-03-16T11:18:29.643Z,2.90
2023-03-16T11:23:39.085Z,2.70
2023-03-16T11:28:46.073Z,2.40
2023-03-16T11:33:48.012Z,2.20
2023-03-16T11:39:12.505Z,2.42
2023-03-16T11:44:33.081Z,2.40
2023-03-16T11:49:52.715Z,2.97
2023-03-16T11:55:17.129Z,2.33
2023-03-16T12:00:33.792Z,2.47
2023-03-16T12:05:47.902Z,2.17
2023-03-16T12:10:57.622Z,1.80
2023-03-16T12:16:49.527Z,1.98
2023-03-16T12:22:02.897Z,2.25
2023-03-16T12:27:05.853Z,2.10
2023-03-16T12:32:28.021Z,2.58
2023-03-16T12:38:18.297Z,2.30
2023-03-16T12:43:55.526Z,2.20
2023-03-16T12:54:00.331Z,2.10
2023-03-16T12:59:05.991Z,2.10
2023-03-16T13:04:18.178Z,1.80
2023-03-16T13:09:24.154Z,1.85
2023-03-16T13:14:44.798Z,1.80
2023-03-16T13:20:21.006Z,1.92
2023-03-16T13:25:29.372Z,1.67
2023-03-16T13:30:34.353Z,1.70
2023-03-16T13:35:39.256Z,1.00
2023-03-16T13:40:46.312Z,1.40
2023-03-16T13:45:47.903Z,2.25
2023-03-16T13:50:57.000Z,1.30
2023-03-16T13:56:01.283Z,1.95
2023-03-16T14:01:05.537Z,1.50
2023-03-16T14:06:19.028Z,1.30
2023-03-16T14:11:21.539Z,1.73
2023-03-16T14:16:25.477Z,1.60
2023-03-16T14:21:30.951Z,1.20
2023-03-16T14:26:46.768Z,1.90
2023-03-16T14:31:48.350Z,2.07
2023-03-16T14:36:50.221Z,1.48
2023-03-16T14:41:52.861Z,1.67
2023-03-16T14:46:55.835Z,1.20
2023-03-16T14:52:04.625Z,1.42
2023-03-16T14:57:06.419Z,1.67
2023-03-16T15:02:16.939Z,1.60
2023-03-16T15:07:23.262Z,1.80
2023-03-16T15:12:24.768Z,1.98
2023-03-16T15:17:26.485Z,1.95
2023-03-16T15:22:34.105Z,2.88
2023-03-16T15:27:36.277Z,2.10
2023-03-16T15:32:37.807Z,2.40
2023-03-16T15:37:39.767Z,2.00
2023-03-16T15:42:41.516Z,2.30
2023-03-16T15:47:43.492Z,2.38
2023-03-16T15:53:13.315Z,2.47
2023-03-16T15:58:28.208Z,2.47
2023-03-16T16:03:30.388Z,2.10
2023-03-16T16:08:32.346Z,2.20
2023-03-16T16:13:44.078Z,2.40
2023-03-16T16:18:47.691Z,1.95
2023-03-16T16:23:49.504Z,3.20
2023-03-16T16:28:51.609Z,2.83
2023-03-16T16:33:53.140Z,3.05
2023-03-16T16:38:54.900Z,2.83
2023-03-16T16:43:57.913Z,2.85
2023-03-16T16:49:04.477Z,3.20
2023-03-16T16:54:18.626Z,2.75
2023-03-16T16:59:32.088Z,2.63
2023-03-16T17:04:34.970Z,2.58
2023-03-16T17:09:36.715Z,2.83
2023-03-16T17:14:38.509Z,2.90
2023-03-16T17:19:40.497Z,2.70
2023-03-16T17:24:42.562Z,2.70
2023-03-16T17:29:44.256Z,2.60
2023-03-16T17:34:46.190Z,2.20
2023-03-16T17:39:48.384Z,2.65
2023-03-16T17:44:52.855Z,2.58
2023-03-16T17:49:55.364Z,2.70
2023-03-16T17:54:57.204Z,2.50
2023-03-16T18:00:00.502Z,2.30
2023-03-16T18:05:02.195Z,2.88
2023-03-16T18:10:04.021Z,2.30
2023-03-16T18:15:05.965Z,3.05
2023-03-16T18:20:24.401Z,4.97
2023-03-16T18:25:37.607Z,3.17
2023-03-16T18:30:40.874Z,2.10
2023-03-16T18:35:43.395Z,2.00
2023-03-16T18:40:44.997Z,2.85
2023-03-16T18:45:47.657Z,2.20
2023-03-16T18:50:49.266Z,1.92
2023-03-16T18:55:51.451Z,2.45
2023-03-16T19:00:58.001Z,2.03
2023-03-16T19:06:01.507Z,2.92
2023-03-16T19:11:05.006Z,2.95
2023-03-16T19:16:13.978Z,2.65
2023-03-16T19:21:18.768Z,2.40
2023-03-16T19:26:20.580Z,2.47
2023-03-16T19:31:25.267Z,2.80
2023-03-16T19:36:31.893Z,2.58
2023-03-16T19:41:37.336Z,2.80
2023-03-16T19:46:39.989Z,3.13
2023-03-16T19:51:41.572Z,2.75
2023-03-16T19:56:43.150Z,2.85
2023-03-16T20:01:44.884Z,3.20
2023-03-16T20:06:49.385Z,2.95
2023-03-16T20:11:51.874Z,3.00
2023-03-16T20:16:53.571Z,2.75
2023-03-16T20:21:55.160Z,2.85
2023-03-16T20:26:56.782Z,3.05
2023-03-16T20:31:59.560Z,3.42
2023-03-16T20:37:01.314Z,2.45
2023-03-16T20:42:02.913Z,2.88
2023-03-16T20:47:04.750Z,3.70
2023-03-16T20:52:16.055Z,3.35
2023-03-16T20:57:23.332Z,3.35
2023-03-16T21:02:32.629Z,2.97
2023-03-16T21:07:34.548Z,3.55
2023-03-16T21:12:39.305Z,3.08
2023-03-16T21:17:41.689Z,3.63
2023-03-16T21:22:43.508Z,3.35
2023-03-16T21:27:46.137Z,3.00
2023-03-16T21:32:49.550Z,2.75
2023-03-16T21:37:51.081Z,2.70
2023-03-16T21:42:52.693Z,2.67
2023-03-16T21:47:54.344Z,3.08
2023-03-16T21:52:56.007Z,2.42
2023-03-16T21:57:58.921Z,2.50
2023-03-16T22:03:00.957Z,2.35
2023-03-16T22:08:12.782Z,2.50
2023-03-16T22:13:15.405Z,2.80
2023-03-16T22:18:35.615Z,2.10
2023-03-16T22:23:38.014Z,2.47
2023-03-16T22:28:39.889Z,1.92
2023-03-16T22:33:42.554Z,2.60
2023-03-16T22:38:45.540Z,2.70
2023-03-16T22:43:47.629Z,2.28
2023-03-16T22:48:50.131Z,2.17
2023-03-16T22:53:54.476Z,2.15
2023-03-16T22:59:00.712Z,1.70
2023-03-16T23:04:02.482Z,1.80
2023-03-16T23:09:04.479Z,2.15
2023-03-16T23:14:20.692Z,1.60
2023-03-16T23:19:31.151Z,1.40
2023-03-16T23:24:34.784Z,1.60
2023-03-16T23:29:36.703Z,2.00
2023-03-16T23:34:38.741Z,2.58
2023-03-16T23:39:40.498Z,1.83
2023-03-16T23:44:43.248Z,2.22
2023-03-16T23:49:44.794Z,2.40
2023-03-16T23:54:46.305Z,2.22
2023-03-16T23:59:47.874Z,2.30
